AirNav   Bose Proflight Series 2 Wireless Aviation Headset
 
 1125 users online  

CL35 Warner Springs Gliderport
Warner Springs, California, USA

GOING TO WARNER SPRINGS?


FAA INFORMATION EFFECTIVE 07 NOVEMBER 2019

Location

FAA Identifier: CL35
Lat/Long: 33-17-04.2100N 116-40-10.7650W
33-17.070167N 116-40.179417W
33.2845028,-116.6696569
(estimated)
Elevation: 2880 ft. / 878 m (estimated)
Variation: 13E (1985)
From city: 2 miles E of WARNER SPRINGS, CA
Time zone: UTC -8 (UTC -7 during Daylight Saving Time)
Zip code: 92086

Gliderport Operations

Gliderport use: Private use. Permission required prior to landing
Activation date: 10/1984
Control tower: no
ARTCC: LOS ANGELES CENTER
FSS: SAN DIEGO FLIGHT SERVICE STATION
Attendance: 0900-1700
Wind indicator: yes
Segmented circle: yes
Landing fee: yes

Gliderport Communications

UNICOM: 122.8
WX AWOS-3P at L08 (18 nm E): 126.575 (760-767-3308)
WX ASOS at RNM (19 nm SW): PHONE 760-789-7699

Nearby radio navigation aids

VOR radial/distance  VOR name  Freq  Var
JLIr319/9.6JULIAN VORTAC114.0015E
TRMr218/32.8THERMAL VORTAC116.2013E
PSPr186/37.1PALM SPRINGS VORTAC115.5013E
OCNr071/37.6OCEANSIDE VORTAC115.3015E
HDFr125/(39.2)HOMELAND VOR113.4014E

Gliderport Services

Runway Information

Runway 8/26

Dimensions: 3500 x 70 ft. / 1067 x 21 m
Surface: asphalt
RUNWAY 8  RUNWAY 26
Latitude: 33-17.060333N33-17.080000N
Longitude: 116-40.522667W116-39.836167W
Elevation: 2873.0 ft.2914.0 ft.
Traffic pattern: leftleft
Obstructions: none200 ft. hill, 5200 ft. from runway

Gliderport Ownership and Management from official FAA records

Ownership: Privately-owned
Owner: WARNER SPRINGS RANCH RESORT, LLC
31930 HWY 79
WARNER SPRINGS, CA 92086
Phone 760-782-4200
SKY SAILING 31930 HWY 79.
Manager: BRET WILLAT
SKY SAILING 31930 HWY 79
WARNER SPRINGS, CA 92086
Phone 760-782-0404
LEASEE.

Gliderport Operational Statistics

Aircraft based on the field: 80
Single engine airplanes: 10
Gliders airplanes: 70
    

Additional Remarks

FOR CD CTC LOS ANGELES ARTCC AT 661-575-2079.

Instrument Procedures

There are no published instrument procedures at CL35.

Some nearby airports with instrument procedures:

L08 - Borrego Valley Airport (18 nm E)
KRNM - Ramona Airport (19 nm SW)
F70 - French Valley Airport (29 nm NW)
L18 - Fallbrook Community Airpark (29 nm W)
KSEE - Gillespie Field Airport (31 nm SW)
 
Loc | Ops | Rwys | IFR | FBO | Links
Com | Nav | Svcs | Stats | Notes
Area around CL35 (Warner Springs Gliderport)
 
Road maps at: MapQuest Bing Google
 
Aerial photo
WARNING: Photo may not be current or correct
Aerial photo of CL35 (Warner Springs Gliderport)
Photo by Steve Lupinacci
Photo taken 27-May-2008

Do you have a better or more recent aerial photo of Warner Springs Gliderport that you would like to share? If so, please send us your photo.

 
Sectional chart

 
Airport distance calculator
Flying to Warner Springs Gliderport? Find the distance to fly.

From to CL35

Sunrise and sunset
Times for 12-Nov-2019
 Local
(UTC-8)
 Zulu
(UTC)
Morning civil twilight05:5013:50
Sunrise06:1614:16
Sunset16:4600:46
Evening civil twilight17:1201:12

Current date and time
Zulu (UTC)  12-Nov-2019 22:37:13
Local (UTC-8)  12-Nov-2019 14:37:13
 
METAR
KL08 
18nm E 
122215Z AUTO 14006KT 10SM CLR 31/M10 A2997 RMK AO2
KRNM 
20nm SW 
122153Z 29008KT 10SM CLR 29/00 A3000 RMK AO2 SLP151 T02890000
KF70 
29nm NW 
122215Z AUTO 20007KT 10SM CLR 29/01 A3000 RMK AO1
KL18 
29nm W 
122215Z AUTO 20005KT 10SM CLR 25/12 A2999 RMK AO2
KSEE 
32nm SW 
122147Z 27007KT 10SM SKC 29/04 A2998
KCRQ 
32nm W 
122153Z 28005KT 3SM HZ CLR 19/14 A2998 RMK AO2 SLP150 T01890139
KTRM 
33nm NE 
122152Z AUTO 13008KT 10SM CLR 32/M04 A2993 RMK AO2 SLP138 T03171039
KPSP 
33nm N 
122153Z 14008KT 10SM CLR 32/M04 A2998 RMK AO2 SLP149 T03171044
KNFG 
33nm W 
122155Z AUTO 21008KT 4SM HZ CLR 22/13 A2997 RMK AO2 SLP148 T02170133 $
KNKX 
34nm SW 
122155Z 30006KT 9SM CLR 25/12 A2998 RMK AO2 SLP149 T02500122 $
TAF
KCRQ 
32nm W 
122144Z 1222/1318 26006KT 5SM HZ SCT006 FM130600 VRB03KT 3SM BR OVC004 FM130900 00000KT 1/4SM FG VV001 FM131700 00000KT 1SM BR OVC002
KTRM 
33nm NE 
121720Z 1218/1318 VRB05KT P6SM SKC
KPSP 
33nm N 
121720Z 1218/1318 VRB05KT P6SM SKC= TAF KTRM 121720Z 1218/1318 VRB05KT P6SM SKC
KNKX 
34nm SW 
1221/1321 31007KT 9999 SKC QNH2995INS BECMG 1306/1308 VRB05KT 4800 BR OVC009 QNH2994INS TEMPO 1308/1314 0800 FG VV001 FM131430 VRB05KT 9999 SKC QNH2992INS T25/1221Z T11/1311Z
NOTAMs
Click for the latest NOTAMs
NOTAMs are issued by the DoD/FAA and will open in a separate window not controlled by AirNav.

 

 
 

Would you like to see your business listed on this page?

 If your business provides an interesting product or service to pilots, flight crews, aircraft, or users of the Warner Springs Gliderport, you should consider listing it here.  To start the listing process, click on the button below
 
Add a business
 

Other Pages about Warner Springs Gliderport

www.agcsc.org/warner_springs_info.html
 
Update a link
 
Copyright © AirNav, LLC. All rights reserved. Privacy Policy  Contact